Time;durP1;ratioP1;P1;durP2;ratioP2;P2;SDS_P1;SDS_P2;PMS_P1;PMS_P2;Temp;Humidity;BMP_temperature;BMP_pressure;BME280_temperature;BME280_humidity;BME280_pressure;Samples;Min_cycle;Max_cycle;Signal;HPM_P1;HPM_P2
2022/10/11 00:00:04;;;;;;;;;;;;;;;14.23;97.99;99829.31;8366040;28;20431;-76
2022/10/11 00:04:06;;;;;;;;;;;;;;;14.20;97.92;99838.06;8352436;28;20537;-76
2022/10/11 00:08:07;;;;;;;;;;;;;;;14.17;97.79;99830.22;8353622;28;19928;-76
2022/10/11 00:12:08;;;;;;;;;;;;;;;14.15;98.00;99837.22;8345552;28;19928;-76
2022/10/11 00:16:10;;;;;;;;;;;;;;;14.11;98.19;99840.75;8372067;28;20391;-75
2022/10/11 00:20:12;;;;;;;;;;;;;;;14.09;98.65;99850.34;8368034;28;19929;-76
2022/10/11 00:24:14;;;;;;;;;;;;;;;14.13;99.02;99843.34;8375348;28;19932;-76
2022/10/11 00:28:16;;;;;;;;;;;;;;;14.18;98.74;99849.38;8353002;28;20792;-76
2022/10/11 00:32:17;;;;;;;;;;;;;;;14.25;98.52;99858.03;8367487;28;19959;-76
2022/10/11 00:36:19;;;;;;;;;;;;;;;14.33;97.06;99861.38;8336794;28;19939;-76
2022/10/11 00:40:20;;;;;;;;;;;;;;;14.41;95.37;99867.41;8340554;28;19933;-76
2022/10/11 00:44:23;;;;;;;;;;;;;;;14.48;93.93;99867.31;8317529;28;19952;-75
2022/10/11 00:48:26;;;;;;;;;;;;;;;14.56;92.56;99869.00;8331956;28;19929;-76
2022/10/11 00:52:30;;;;;;;;;;;;;;;14.60;91.52;99874.16;8335637;28;19987;-76
2022/10/11 00:56:35;;;;;;;;;;;;;;;14.61;90.99;99877.63;8330089;28;19929;-76
2022/10/11 01:00:36;;;;;;;;;;;;;;;14.52;92.33;99882.09;8346942;28;19929;-76
2022/10/11 01:04:38;;;;;;;;;;;;;;;14.43;93.30;99884.81;8331226;28;20464;-76
2022/10/11 01:08:40;;;;;;;;;;;;;;;14.33;93.98;99892.75;8330112;28;20340;-76
2022/10/11 01:12:55;;;;;;;;;;;;;;;14.29;94.62;99893.66;8316346;28;20561;-76
2022/10/11 01:17:02;;;;;;;;;;;;;;;14.25;95.12;99895.44;8350082;28;19990;-76
2022/10/11 01:21:15;;;;;;;;;;;;;;;14.22;95.35;99895.50;8343641;28;19948;-76
2022/10/11 01:25:23;;;;;;;;;;;;;;;14.20;95.94;99890.28;8345539;28;19929;-76
2022/10/11 01:29:47;;;;;;;;;;;;;;;14.20;96.05;99887.69;8332215;28;19933;-76
2022/10/11 01:33:58;;;;;;;;;;;;;;;14.20;96.44;99890.28;8350040;28;19932;-76
2022/10/11 01:38:05;;;;;;;;;;;;;;;14.20;96.04;99884.19;8381244;28;19928;-76
2022/10/11 01:42:09;;;;;;;;;;;;;;;14.18;95.82;99894.66;8358974;28;20001;-76
2022/10/11 01:46:11;;;;;;;;;;;;;;;14.16;96.00;99900.75;8335213;28;19935;-76
2022/10/11 01:50:31;;;;;;;;;;;;;;;14.14;96.53;99894.69;8369061;28;19932;-76
2022/10/11 01:54:32;;;;;;;;;;;;;;;14.17;95.43;99899.88;8368755;28;19928;-76
2022/10/11 01:58:54;;;;;;;;;;;;;;;14.21;94.04;99902.47;8374214;28;20443;-76
2022/10/11 02:03:04;;;;;;;;;;;;;;;14.24;93.07;99901.56;8364265;28;19985;-76
2022/10/11 02:07:08;;;;;;;;;;;;;;;14.24;92.56;99906.78;8381471;28;20608;-76
2022/10/11 02:11:26;;;;;;;;;;;;;;;14.26;91.78;99897.19;8347737;28;19928;-76
2022/10/11 02:15:29;;;;;;;;;;;;;;;14.27;90.61;99901.53;8355359;28;20272;-76
2022/10/11 02:19:33;;;;;;;;;;;;;;;14.28;89.96;99903.25;8367685;28;19937;-75
2022/10/11 02:23:48;;;;;;;;;;;;;;;14.31;89.32;99899.72;8351720;28;19929;-77
2022/10/11 02:27:52;;;;;;;;;;;;;;;14.32;88.85;99897.09;8365764;28;19951;-76
2022/10/11 02:31:55;;;;;;;;;;;;;;;14.32;88.60;99899.72;8359891;28;19947;-76
2022/10/11 02:36:00;;;;;;;;;;;;;;;14.33;88.57;99895.34;8374159;28;19933;-76
2022/10/11 02:40:09;;;;;;;;;;;;;;;14.33;88.30;99904.06;8380210;28;19929;-76
2022/10/11 02:44:23;;;;;;;;;;;;;;;14.32;88.21;99904.06;8358091;28;19929;-76
2022/10/11 02:48:26;;;;;;;;;;;;;;;14.30;88.44;99898.88;8355461;28;19932;-76
2022/10/11 02:52:27;;;;;;;;;;;;;;;14.29;88.45;99912.81;8355207;28;20368;-76
2022/10/11 02:56:29;;;;;;;;;;;;;;;14.28;88.27;99905.88;8356754;28;19936;-76
2022/10/11 03:00:30;;;;;;;;;;;;;;;14.29;87.92;99919.78;8353884;28;19928;-78
2022/10/11 03:04:31;;;;;;;;;;;;;;;14.28;87.96;99913.69;8379841;28;19948;-76
2022/10/11 03:08:32;;;;;;;;;;;;;;;14.28;88.02;99918.06;8350230;28;19977;-76
2022/10/11 03:12:34;;;;;;;;;;;;;;;14.27;87.46;99919.81;8363065;28;19933;-76
2022/10/11 03:16:35;;;;;;;;;;;;;;;14.27;87.54;99918.94;8379578;28;19986;-76
2022/10/11 03:20:37;;;;;;;;;;;;;;;14.23;87.38;99922.47;8362356;28;19990;-76
2022/10/11 03:24:38;;;;;;;;;;;;;;;14.21;87.26;99919.88;8364545;28;19929;-76
2022/10/11 03:28:40;;;;;;;;;;;;;;;14.18;87.09;99919.88;8378285;28;19989;-76
2022/10/11 03:32:42;;;;;;;;;;;;;;;14.15;87.31;99928.63;8350791;28;20019;-76
2022/10/11 03:36:43;;;;;;;;;;;;;;;14.13;86.60;99926.91;8365204;28;19994;-76
2022/10/11 03:40:45;;;;;;;;;;;;;;;14.09;86.19;99935.66;8378629;28;19933;-76
2022/10/11 03:44:48;;;;;;;;;;;;;;;14.04;86.11;99934.84;8374133;28;20286;-76
2022/10/11 03:48:49;;;;;;;;;;;;;;;13.97;85.04;99936.66;8375966;28;19939;-76
2022/10/11 03:52:51;;;;;;;;;;;;;;;13.90;82.55;99954.13;8373160;28;20772;-76
2022/10/11 03:56:52;;;;;;;;;;;;;;;13.81;80.88;99950.72;8347294;28;20006;-76
2022/10/11 04:00:53;;;;;;;;;;;;;;;13.74;80.44;99946.44;8335801;28;20500;-76
2022/10/11 04:04:54;;;;;;;;;;;;;;;13.62;79.80;99955.22;8367021;28;19994;-76
2022/10/11 04:08:56;;;;;;;;;;;;;;;13.57;79.73;99959.63;8355450;28;19933;-76
2022/10/11 04:12:58;;;;;;;;;;;;;;;13.49;79.19;99961.44;8360180;28;19929;-76
2022/10/11 04:16:59;;;;;;;;;;;;;;;13.43;78.72;99967.53;8364928;28;19932;-76
2022/10/11 04:21:01;;;;;;;;;;;;;;;13.35;77.85;99965.84;8357040;28;19933;-78
2022/10/11 04:25:03;;;;;;;;;;;;;;;13.28;78.10;99971.13;8357176;28;19986;-76
2022/10/11 04:29:04;;;;;;;;;;;;;;;13.22;78.89;99980.72;8352429;28;19982;-76
2022/10/11 04:33:06;;;;;;;;;;;;;;;13.13;77.81;99986.81;8366386;28;20520;-76
2022/10/11 04:37:07;;;;;;;;;;;;;;;13.06;77.48;99994.66;8372762;28;19985;-76
2022/10/11 04:41:10;;;;;;;;;;;;;;;12.95;76.17;99998.19;8381210;28;20361;-76
2022/10/11 04:45:11;;;;;;;;;;;;;;;12.89;77.22;100007.78;8366373;28;19928;-76
2022/10/11 04:49:13;;;;;;;;;;;;;;;12.81;77.72;100006.94;8356179;28;20750;-76
2022/10/11 04:53:14;;;;;;;;;;;;;;;12.73;76.54;100008.69;8370796;28;19998;-76
2022/10/11 04:57:15;;;;;;;;;;;;;;;12.65;77.00;100012.19;8371686;28;19944;-76
2022/10/11 05:01:16;;;;;;;;;;;;;;;12.58;76.83;100009.63;8362232;28;19933;-76
2022/10/11 05:05:18;;;;;;;;;;;;;;;12.56;77.74;100020.03;8333820;28;19986;-76
2022/10/11 05:09:20;;;;;;;;;;;;;;;12.51;77.15;100020.91;8346905;28;19986;-76
2022/10/11 05:13:22;;;;;;;;;;;;;;;12.48;77.85;100011.38;8354921;28;20449;-76
2022/10/11 05:17:23;;;;;;;;;;;;;;;12.41;76.59;100020.09;8342121;28;19925;-76
2022/10/11 05:21:26;;;;;;;;;;;;;;;12.36;75.75;100017.47;8356178;28;19928;-76
2022/10/11 05:25:27;;;;;;;;;;;;;;;12.29;76.03;100014.88;8345867;28;19959;-76
2022/10/11 05:29:29;;;;;;;;;;;;;;;12.23;75.72;100018.38;8350369;28;20620;-76
2022/10/11 05:33:30;;;;;;;;;;;;;;;12.16;75.54;100027.03;8367294;28;19928;-76
2022/10/11 05:37:32;;;;;;;;;;;;;;;12.12;75.78;100027.03;8377768;28;19989;-76
2022/10/11 05:41:33;;;;;;;;;;;;;;;12.09;75.90;100043.53;8362698;28;20410;-76
2022/10/11 05:45:36;;;;;;;;;;;;;;;12.02;75.28;100047.00;8356017;28;19936;-76
2022/10/11 05:49:37;;;;;;;;;;;;;;;11.99;76.00;100044.38;8375611;28;20734;-76
2022/10/11 05:53:39;;;;;;;;;;;;;;;11.97;76.23;100056.53;8353896;28;19985;-76
2022/10/11 05:57:40;;;;;;;;;;;;;;;11.92;75.81;100056.53;8359769;28;19928;-76
2022/10/11 06:01:41;;;;;;;;;;;;;;;11.89;75.77;100063.50;8372296;28;19932;-76
2022/10/11 06:05:43;;;;;;;;;;;;;;;11.87;75.75;100060.88;8362651;28;19928;-76
2022/10/11 06:09:45;;;;;;;;;;;;;;;11.86;75.09;100071.28;8373602;28;19928;-76
2022/10/11 06:13:47;;;;;;;;;;;;;;;11.87;75.75;100075.63;8373133;28;20024;-76
2022/10/11 06:17:49;;;;;;;;;;;;;;;11.90;75.96;100076.50;8350166;28;19929;-76
2022/10/11 06:21:50;;;;;;;;;;;;;;;11.91;76.27;100086.03;8353154;28;20042;-76
2022/10/11 06:25:56;;;;;;;;;;;;;;;11.92;75.88;100089.50;8350044;28;20002;-76
2022/10/11 06:29:57;;;;;;;;;;;;;;;11.91;74.72;100099.06;8347106;28;19932;-76
2022/10/11 06:33:58;;;;;;;;;;;;;;;11.87;74.20;100102.53;8349311;28;19932;-76
2022/10/11 06:38:00;;;;;;;;;;;;;;;11.85;73.69;100100.75;8328967;28;19929;-76
2022/10/11 06:42:01;;;;;;;;;;;;;;;11.84;74.34;100106.81;8352291;28;20308;-76
2022/10/11 06:46:03;;;;;;;;;;;;;;;11.81;73.83;100112.91;8341207;28;19932;-76
2022/10/11 06:50:05;;;;;;;;;;;;;;;11.83;74.90;100113.75;8326569;28;20309;-77
2022/10/11 06:54:06;;;;;;;;;;;;;;;11.82;74.20;100121.56;8330747;28;19929;-76
2022/10/11 06:58:07;;;;;;;;;;;;;;;11.77;73.53;100130.22;8349733;28;20470;-76
2022/10/11 07:02:09;;;;;;;;;;;;;;;11.78;73.33;100134.56;8348716;28;19929;-77
2022/10/11 07:06:12;;;;;;;;;;;;;;;11.82;74.04;100142.38;8343549;28;20469;-76
2022/10/11 07:10:14;;;;;;;;;;;;;;;11.85;73.47;100147.59;8346214;28;19929;-77
2022/10/11 07:14:15;;;;;;;;;;;;;;;11.94;73.04;100147.63;8329615;28;20006;-76
2022/10/11 07:18:16;;;;;;;;;;;;;;;12.09;72.63;100158.06;8341579;28;19960;-76
2022/10/11 07:22:18;;;;;;;;;;;;;;;12.17;72.73;100164.16;8313013;28;19932;-76
2022/10/11 07:26:19;;;;;;;;;;;;;;;12.24;72.25;100170.25;8347351;28;19994;-77
2022/10/11 07:30:21;;;;;;;;;;;;;;;12.31;71.88;100169.38;8326745;28;20416;-76
2022/10/11 07:34:22;;;;;;;;;;;;;;;12.42;71.79;100172.00;8335286;28;20383;-76
2022/10/11 07:38:23;;;;;;;;;;;;;;;12.54;71.35;100169.38;8361110;28;20047;-76
2022/10/11 07:42:25;;;;;;;;;;;;;;;12.66;70.40;100172.00;8360441;28;20005;-76
2022/10/11 07:46:26;;;;;;;;;;;;;;;12.94;70.28;100165.03;8366514;28;20417;-75
2022/10/11 07:50:27;;;;;;;;;;;;;;;13.14;69.00;100171.06;8356771;28;20430;-76
2022/10/11 07:54:29;;;;;;;;;;;;;;;13.24;68.08;100158.91;8371778;28;19928;-76
2022/10/11 07:58:30;;;;;;;;;;;;;;;13.28;68.15;100171.06;8354841;28;19933;-76
2022/10/11 08:02:31;;;;;;;;;;;;;;;13.33;67.50;100165.84;8355390;28;20353;-77
2022/10/11 08:06:35;;;;;;;;;;;;;;;13.48;67.33;100171.88;8357927;28;19982;-76
2022/10/11 08:10:37;;;;;;;;;;;;;;;13.94;66.35;100162.94;8365971;28;19928;-76
2022/10/11 08:14:40;;;;;;;;;;;;;;;14.29;65.24;100167.97;8338974;28;20362;-76
2022/10/11 08:18:42;;;;;;;;;;;;;;;14.54;64.68;100164.28;8369453;28;19963;-76
2022/10/11 08:22:43;;;;;;;;;;;;;;;14.69;64.39;100174.63;8369882;28;19982;-76
2022/10/11 08:26:44;;;;;;;;;;;;;;;14.60;63.83;100185.19;8366385;28;19936;-76
2022/10/11 08:30:46;;;;;;;;;;;;;;;14.46;64.40;100184.41;8369198;28;19937;-76
2022/10/11 08:34:48;;;;;;;;;;;;;;;14.46;65.49;100177.44;8357082;28;19940;-76
2022/10/11 08:38:49;;;;;;;;;;;;;;;14.59;65.72;100172.13;8375653;28;19928;-76
2022/10/11 08:42:56;;;;;;;;;;;;;;;14.62;64.97;100182.56;8361842;28;19982;-76
2022/10/11 08:47:04;;;;;;;;;;;;;;;14.69;65.07;100177.25;8367727;28;19928;-76
2022/10/11 08:51:15;;;;;;;;;;;;;;;14.72;63.97;100177.25;8363374;28;19940;-77
2022/10/11 08:55:35;;;;;;;;;;;;;;;14.65;63.71;100174.69;8376393;28;19929;-76
2022/10/11 08:59:56;;;;;;;;;;;;;;;14.56;64.60;100186.09;8360036;28;20429;-76
2022/10/11 09:04:01;;;;;;;;;;;;;;;14.48;64.75;100188.75;8375076;28;20402;-76
2022/10/11 09:08:24;;;;;;;;;;;;;;;14.46;64.69;100187.03;8354305;28;19928;-75
2022/10/11 09:12:25;;;;;;;;;;;;;;;14.42;64.38;100182.66;8337876;28;19929;-76
2022/10/11 09:16:35;;;;;;;;;;;;;;;14.53;64.42;100183.47;8352367;28;20532;-75
2022/10/11 09:20:37;;;;;;;;;;;;;;;14.69;63.26;100177.25;8360057;28;19932;-76
2022/10/11 09:24:57;;;;;;;;;;;;;;;14.77;62.70;100183.28;8350979;28;20005;-76
2022/10/11 09:29:09;;;;;;;;;;;;;;;14.70;62.93;100172.88;8368635;28;19939;-76
2022/10/11 09:33:11;;;;;;;;;;;;;;;14.66;63.54;100165.94;8366627;28;19939;-76
2022/10/11 09:37:25;;;;;;;;;;;;;;;14.70;63.29;100170.28;8360732;28;19932;-76
2022/10/11 09:41:30;;;;;;;;;;;;;;;14.70;62.73;100175.50;8375377;28;19928;-76
2022/10/11 09:45:31;;;;;;;;;;;;;;;14.67;63.24;100171.16;8351961;28;19929;-76
2022/10/11 09:49:41;;;;;;;;;;;;;;;14.59;63.08;100178.22;8359443;28;19933;-76
2022/10/11 09:53:54;;;;;;;;;;;;;;;14.47;62.75;100183.53;8351004;28;19982;-76
2022/10/11 09:57:56;;;;;;;;;;;;;;;14.49;62.77;100182.63;8376508;28;19936;-77
2022/10/11 10:02:13;;;;;;;;;;;;;;;14.59;62.18;100179.97;8354669;28;20014;-76
2022/10/11 10:06:14;;;;;;;;;;;;;;;14.75;61.81;100179.81;8369157;28;20003;-76
2022/10/11 10:10:27;;;;;;;;;;;;;;;15.01;61.69;100182.19;8372153;28;19929;-76
2022/10/11 10:14:29;;;;;;;;;;;;;;;15.25;60.86;100185.44;8363584;28;19938;-76
2022/10/11 10:18:48;;;;;;;;;;;;;;;15.28;59.98;100183.66;8345686;28;20425;-76
2022/10/11 10:22:50;;;;;;;;;;;;;;;15.40;59.38;100178.28;8376213;28;20435;-76
2022/10/11 10:27:11;;;;;;;;;;;;;;;15.56;59.47;100170.25;8364303;28;19928;-76
2022/10/11 10:31:20;;;;;;;;;;;;;;;15.95;58.70;100171.50;8382647;28;19939;-76
2022/10/11 10:35:30;;;;;;;;;;;;;;;16.33;57.95;100166.56;8378633;28;19955;-76
2022/10/11 10:39:43;;;;;;;;;;;;;;;16.56;56.42;100168.00;8361873;28;20372;-76
2022/10/11 10:43:49;;;;;;;;;;;;;;;16.71;56.19;100166.91;8372248;28;19939;-76
2022/10/11 10:48:15;;;;;;;;;;;;;;;16.81;55.36;100174.56;8376932;28;20701;-76
2022/10/11 10:52:28;;;;;;;;;;;;;;;16.92;55.19;100179.66;8334209;28;20466;-76
2022/10/11 10:56:38;;;;;;;;;;;;;;;16.97;54.31;100171.69;8365855;28;19959;-76
2022/10/11 11:00:42;;;;;;;;;;;;;;;17.02;53.26;100159.34;8353314;28;20359;-76
2022/10/11 11:04:49;;;;;;;;;;;;;;;17.09;54.73;100161.84;8373154;28;20382;-76
2022/10/11 11:09:05;;;;;;;;;;;;;;;17.20;54.98;100151.13;8368456;28;20644;-76
2022/10/11 11:13:07;;;;;;;;;;;;;;;17.29;54.43;100150.97;8366161;28;19928;-76
2022/10/11 11:17:21;;;;;;;;;;;;;;;17.26;53.73;100139.66;8360214;28;19933;-76
2022/10/11 11:21:42;;;;;;;;;;;;;;;17.32;54.57;100137.78;8360801;28;19928;-76
2022/10/11 11:26:03;;;;;;;;;;;;;;;17.36;54.03;100138.56;8347090;28;19936;-76
2022/10/11 11:30:08;;;;;;;;;;;;;;;17.42;53.74;100138.47;8366016;28;19975;-76
2022/10/11 11:34:12;;;;;;;;;;;;;;;17.48;53.35;100131.31;8352423;28;20376;-75
2022/10/11 11:38:46;;;;;;;;;;;;;;;17.46;53.90;100137.50;8348300;28;20620;-76
2022/10/11 11:42:50;;;;;;;;;;;;;;;17.50;53.09;100128.66;8337212;28;19981;-76
2022/10/11 11:46:54;;;;;;;;;;;;;;;17.47;51.85;100118.22;8362316;28;19975;-76
2022/10/11 11:51:00;;;;;;;;;;;;;;;17.47;52.42;100129.59;8374878;28;19929;-76
2022/10/11 11:55:08;;;;;;;;;;;;;;;17.56;52.26;100115.38;8358298;28;19929;-76
2022/10/11 11:59:29;;;;;;;;;;;;;;;17.60;51.97;100116.22;8361254;28;20413;-76
2022/10/11 12:03:39;;;;;;;;;;;;;;;17.61;51.22;100115.31;8356245;28;20407;-76
2022/10/11 12:07:48;;;;;;;;;;;;;;;17.81;52.68;100103.50;8373830;28;19928;-76
2022/10/11 12:11:54;;;;;;;;;;;;;;;18.01;52.96;100100.41;8375355;28;19928;-76
2022/10/11 12:16:00;;;;;;;;;;;;;;;18.06;51.62;100089.78;8355329;28;19959;-76
2022/10/11 12:20:20;;;;;;;;;;;;;;;18.11;51.91;100088.75;8374107;28;19928;-76
2022/10/11 12:24:22;;;;;;;;;;;;;;;18.23;51.74;100086.75;8349191;28;19929;-76
2022/10/11 12:28:36;;;;;;;;;;;;;;;18.27;51.51;100077.88;8363093;28;19928;-76
2022/10/11 12:32:38;;;;;;;;;;;;;;;18.32;51.63;100076.03;8373788;28;19943;-76
2022/10/11 12:36:40;;;;;;;;;;;;;;;18.33;51.47;100077.75;8341342;28;19994;-76
2022/10/11 12:40:44;;;;;;;;;;;;;;;18.39;51.88;100059.19;8355866;28;19993;-76
2022/10/11 12:45:04;;;;;;;;;;;;;;;18.44;50.92;100059.91;8355542;28;19929;-76
2022/10/11 12:49:09;;;;;;;;;;;;;;;18.40;52.09;100059.13;8364419;28;20352;-76
2022/10/11 12:53:29;;;;;;;;;;;;;;;18.44;51.84;100054.66;8353894;28;19928;-76
2022/10/11 12:57:49;;;;;;;;;;;;;;;18.41;51.92;100050.34;8369357;28;19936;-76
2022/10/11 13:01:56;;;;;;;;;;;;;;;18.46;51.60;100046.72;8367247;28;20002;-76
2022/10/11 13:05:57;;;;;;;;;;;;;;;18.51;51.35;100050.13;8361211;28;19928;-76
2022/10/11 13:10:03;;;;;;;;;;;;;;;18.54;51.76;100047.41;8361023;28;19928;-76
2022/10/11 13:14:10;;;;;;;;;;;;;;;18.49;51.57;100039.63;8356686;28;20604;-76
2022/10/11 13:18:12;;;;;;;;;;;;;;;18.46;52.02;100039.69;8351350;28;19937;-76
2022/10/11 13:22:18;;;;;;;;;;;;;;;18.45;51.98;100037.97;8354019;28;20357;-76
2022/10/11 13:26:19;;;;;;;;;;;;;;;18.42;51.98;100027.53;8373891;28;19936;-76
2022/10/11 13:30:26;;;;;;;;;;;;;;;18.39;51.57;100028.50;8357692;28;20470;-76
2022/10/11 13:34:28;;;;;;;;;;;;;;;18.36;51.73;100018.06;8376132;28;19994;-76
2022/10/11 13:38:35;;;;;;;;;;;;;;;18.34;51.36;100024.25;8375419;28;20023;-76
2022/10/11 13:42:37;;;;;;;;;;;;;;;18.34;52.09;100030.38;8361096;28;19928;-76
2022/10/11 13:46:39;;;;;;;;;;;;;;;18.35;52.32;100025.97;8368934;28;19925;-76
2022/10/11 13:50:45;;;;;;;;;;;;;;;18.31;52.45;100022.56;8376460;28;20230;-76
2022/10/11 13:54:53;;;;;;;;;;;;;;;18.31;52.57;100016.44;8380633;28;19928;-76
2022/10/11 13:58:55;;;;;;;;;;;;;;;18.27;52.70;100025.31;8367982;28;19952;-76
2022/10/11 14:03:05;;;;;;;;;;;;;;;18.25;52.23;100024.47;8354667;28;19929;-76
2022/10/11 14:07:26;;;;;;;;;;;;;;;18.14;52.77;100021.28;8372621;28;19990;-76
2022/10/11 14:11:32;;;;;;;;;;;;;;;18.09;53.47;100022.22;8372766;28;19998;-76
2022/10/11 14:15:35;;;;;;;;;;;;;;;17.98;53.50;100016.41;8340403;28;19989;-76
2022/10/11 14:19:36;;;;;;;;;;;;;;;17.90;53.98;100018.34;8374901;28;20385;-76
2022/10/11 14:23:38;;;;;;;;;;;;;;;17.80;53.66;100017.72;8351940;28;19941;-76
2022/10/11 14:27:41;;;;;;;;;;;;;;;17.68;53.84;100015.34;8373840;28;20361;-76
2022/10/11 14:31:42;;;;;;;;;;;;;;;17.59;54.70;100012.03;8365612;28;19929;-77
2022/10/11 14:35:44;;;;;;;;;;;;;;;17.50;54.71;100018.38;8358750;28;19929;-76
2022/10/11 14:39:46;;;;;;;;;;;;;;;17.42;54.53;100022.94;8361094;28;19933;-76
2022/10/11 14:43:47;;;;;;;;;;;;;;;17.35;54.60;100026.59;8354530;28;19990;-76
2022/10/11 14:47:49;;;;;;;;;;;;;;;17.27;54.64;100028.53;8359540;28;19939;-76
2022/10/11 14:51:52;;;;;;;;;;;;;;;17.18;55.45;100027.81;8341054;28;19944;-76
2022/10/11 14:55:54;;;;;;;;;;;;;;;17.13;54.68;100034.06;8366414;28;19982;-76
2022/10/11 14:59:55;;;;;;;;;;;;;;;17.04;54.51;100023.75;8344549;28;19925;-76
2022/10/11 15:03:57;;;;;;;;;;;;;;;16.98;55.57;100016.00;8370699;28;19928;-76
2022/10/11 15:07:58;;;;;;;;;;;;;;;16.88;56.39;100023.22;8356065;28;19974;-76
2022/10/11 15:11:59;;;;;;;;;;;;;;;16.87;55.92;100016.22;8374266;28;19943;-76
2022/10/11 15:16:01;;;;;;;;;;;;;;;16.84;55.99;100013.66;8367877;28;19928;-76
2022/10/11 15:20:06;;;;;;;;;;;;;;;16.89;57.19;100011.81;8358907;28;20403;-76
2022/10/11 15:24:07;;;;;;;;;;;;;;;16.93;55.83;100003.00;8359529;28;19978;-76
2022/10/11 15:28:17;;;;;;;;;;;;;;;16.94;55.35;99998.59;8370735;28;19929;-76
2022/10/11 15:32:19;;;;;;;;;;;;;;;16.85;56.06;100004.88;8369711;28;19941;-76
2022/10/11 15:36:21;;;;;;;;;;;;;;;16.86;56.07;99999.59;8370517;28;19994;-76
2022/10/11 15:40:29;;;;;;;;;;;;;;;16.89;56.42;100006.56;8369626;28;19933;-76
2022/10/11 15:44:30;;;;;;;;;;;;;;;16.97;56.82;100001.16;8362776;28;19933;-76
2022/10/11 15:48:32;;;;;;;;;;;;;;;17.47;55.03;99998.31;8349832;28;19928;-76
2022/10/11 15:52:34;;;;;;;;;;;;;;;17.90;53.46;99999.06;8373580;28;19990;-76
2022/10/11 15:56:36;;;;;;;;;;;;;;;17.63;52.84;100004.06;8338915;28;19929;-76
2022/10/11 16:00:37;;;;;;;;;;;;;;;17.13;53.17;100008.69;8352016;28;19959;-76
2022/10/11 16:04:39;;;;;;;;;;;;;;;16.73;54.30;100006.00;8352354;28;19928;-76
2022/10/11 16:08:40;;;;;;;;;;;;;;;16.40;55.18;100014.47;8365204;28;19982;-76
2022/10/11 16:12:42;;;;;;;;;;;;;;;16.13;55.97;100008.81;8373651;28;19929;-76
2022/10/11 16:16:43;;;;;;;;;;;;;;;15.89;56.18;100007.47;8362087;28;20320;-76
2022/10/11 16:20:46;;;;;;;;;;;;;;;15.70;57.16;100009.53;8369853;28;19928;-76
2022/10/11 16:24:48;;;;;;;;;;;;;;;15.49;58.52;100004.56;8336228;28;19928;-76
2022/10/11 16:28:49;;;;;;;;;;;;;;;15.29;59.34;100002.25;8366536;28;19928;-76
2022/10/11 16:32:51;;;;;;;;;;;;;;;15.14;59.95;100005.06;8336119;28;19945;-76
2022/10/11 16:36:52;;;;;;;;;;;;;;;14.97;60.06;100010.50;8343209;28;19998;-76
2022/10/11 16:40:53;;;;;;;;;;;;;;;14.86;60.93;100014.13;8330711;28;19928;-77
2022/10/11 16:44:55;;;;;;;;;;;;;;;14.72;61.19;100009.03;8358873;28;19963;-77
2022/10/11 16:48:57;;;;;;;;;;;;;;;14.61;61.89;100018.78;8355210;28;19928;-76
2022/10/11 16:52:58;;;;;;;;;;;;;;;14.46;61.81;100025.00;8361457;28;19928;-76
2022/10/11 16:56:59;;;;;;;;;;;;;;;14.36;61.79;100018.09;8356171;28;19932;-77
2022/10/11 17:01:01;;;;;;;;;;;;;;;14.25;61.66;100019.97;8333228;28;19954;-76
2022/10/11 17:05:03;;;;;;;;;;;;;;;14.16;61.28;100018.28;8357848;28;19928;-77
2022/10/11 17:09:04;;;;;;;;;;;;;;;14.08;61.83;100014.88;8362796;28;20195;-77
2022/10/11 17:13:06;;;;;;;;;;;;;;;13.95;62.13;100014.13;8350748;28;20488;-76
2022/10/11 17:17:08;;;;;;;;;;;;;;;13.86;62.04;100014.22;8352428;28;19932;-77
2022/10/11 17:21:12;;;;;;;;;;;;;;;13.78;62.71;100019.47;8328290;28;19929;-76
2022/10/11 17:25:13;;;;;;;;;;;;;;;13.71;62.28;100023.00;8340070;28;19985;-77
2022/10/11 17:29:15;;;;;;;;;;;;;;;13.65;62.00;100025.69;8349077;28;19936;-77
2022/10/11 17:33:16;;;;;;;;;;;;;;;13.56;62.55;100033.53;8327398;28;19928;-77
2022/10/11 17:37:18;;;;;;;;;;;;;;;13.47;62.57;100036.22;8362782;28;19928;-77
2022/10/11 17:41:19;;;;;;;;;;;;;;;13.42;63.36;100037.97;8355974;28;19981;-77
2022/10/11 17:45:21;;;;;;;;;;;;;;;13.34;63.87;100027.59;8347266;28;19932;-76
2022/10/11 17:49:22;;;;;;;;;;;;;;;13.24;64.09;100033.72;8352172;28;19928;-77
2022/10/11 17:53:23;;;;;;;;;;;;;;;13.12;64.58;100031.16;8339510;28;19928;-76
2022/10/11 17:57:25;;;;;;;;;;;;;;;12.96;65.42;100040.78;8353960;28;19972;-76
2022/10/11 18:01:27;;;;;;;;;;;;;;;12.89;66.21;100039.03;8359838;28;19928;-76
2022/10/11 18:05:29;;;;;;;;;;;;;;;12.76;65.48;100043.44;8372359;28;19939;-76
2022/10/11 18:09:31;;;;;;;;;;;;;;;12.62;66.10;100035.66;8340436;28;19932;-76
2022/10/11 18:13:33;;;;;;;;;;;;;;;12.56;66.62;100035.66;8348923;28;20254;-76
2022/10/11 18:17:34;;;;;;;;;;;;;;;12.49;67.30;100036.56;8349156;28;20400;-76
2022/10/11 18:21:36;;;;;;;;;;;;;;;12.36;67.50;100042.63;8353203;28;19929;-76
2022/10/11 18:25:38;;;;;;;;;;;;;;;12.25;68.10;100036.59;8349965;28;20007;-76
2022/10/11 18:29:39;;;;;;;;;;;;;;;11.99;69.70;100041.78;8362011;28;19928;-76
2022/10/11 18:33:41;;;;;;;;;;;;;;;11.83;70.95;100046.09;8366454;28;19928;-76
2022/10/11 18:37:43;;;;;;;;;;;;;;;11.67;71.91;100041.72;8344814;28;19932;-76
2022/10/11 18:41:44;;;;;;;;;;;;;;;11.51;72.88;100046.06;8365478;28;19928;-76
2022/10/11 18:45:45;;;;;;;;;;;;;;;11.38;73.58;100050.34;8374701;28;20332;-76
2022/10/11 18:49:47;;;;;;;;;;;;;;;11.29;73.63;100041.63;8365409;28;19983;-76
2022/10/11 18:53:48;;;;;;;;;;;;;;;11.30;72.58;100043.38;8365160;28;19986;-76
2022/10/11 18:57:50;;;;;;;;;;;;;;;11.37;71.72;100045.13;8356751;28;19928;-76
2022/10/11 19:01:51;;;;;;;;;;;;;;;11.41;71.61;100041.69;8343828;28;19971;-75
2022/10/11 19:05:53;;;;;;;;;;;;;;;11.41;71.08;100047.75;8359111;28;19932;-75
2022/10/11 19:09:54;;;;;;;;;;;;;;;11.45;71.03;100046.88;8346836;28;19978;-76
2022/10/11 19:14:06;;;;;;;;;;;;;;;11.43;71.53;100048.63;8360328;28;19982;-75
2022/10/11 19:18:09;;;;;;;;;;;;;;;11.31;72.50;100051.19;8344178;28;20296;-75
2022/10/11 19:22:11;;;;;;;;;;;;;;;11.09;73.97;100062.34;8362464;28;19939;-76
2022/10/11 19:26:13;;;;;;;;;;;;;;;10.87;74.98;100061.38;8361277;28;19998;-76
2022/10/11 19:30:15;;;;;;;;;;;;;;;10.59;76.07;100070.75;8357827;28;19929;-75
2022/10/11 19:34:16;;;;;;;;;;;;;;;10.46;77.33;100075.00;8348337;28;19928;-75
2022/10/11 19:38:18;;;;;;;;;;;;;;;10.35;78.18;100075.78;8371350;28;19933;-76
2022/10/11 19:42:24;;;;;;;;;;;;;;;10.27;79.05;100061.03;8353829;28;20096;-75
2022/10/11 19:46:26;;;;;;;;;;;;;;;10.19;78.77;100056.59;8353024;28;19929;-75
2022/10/11 19:50:48;;;;;;;;;;;;;;;10.07;79.00;100059.09;8369360;28;19929;-76
2022/10/11 19:54:49;;;;;;;;;;;;;;;9.94;79.64;100061.56;8333997;28;19978;-75
2022/10/11 19:58:50;;;;;;;;;;;;;;;9.91;80.27;100060.69;8367140;28;19928;-75
2022/10/11 20:02:52;;;;;;;;;;;;;;;9.83;80.63;100059.72;8347592;28;19989;-76
2022/10/11 20:06:53;;;;;;;;;;;;;;;9.80;80.97;100070.09;8342013;28;19936;-76
2022/10/11 20:10:55;;;;;;;;;;;;;;;9.74;80.92;100065.72;8358045;28;19963;-76
2022/10/11 20:14:56;;;;;;;;;;;;;;;9.73;81.55;100071.75;8367569;28;19928;-76
2022/10/11 20:18:58;;;;;;;;;;;;;;;9.76;81.55;100078.69;8340273;28;19993;-76
2022/10/11 20:22:59;;;;;;;;;;;;;;;9.70;81.67;100076.91;8345061;28;19932;-76
2022/10/11 20:27:01;;;;;;;;;;;;;;;9.65;81.54;100073.38;8347000;28;19928;-76
2022/10/11 20:31:04;;;;;;;;;;;;;;;9.56;81.79;100071.59;8361034;28;19936;-75
2022/10/11 20:35:08;;;;;;;;;;;;;;;9.50;81.43;100078.41;8366222;28;20040;-76
2022/10/11 20:39:09;;;;;;;;;;;;;;;9.41;81.79;100074.00;8365315;28;19933;-76
2022/10/11 20:43:10;;;;;;;;;;;;;;;9.29;81.59;100087.69;8352856;28;19933;-75
2022/10/11 20:47:11;;;;;;;;;;;;;;;9.20;82.05;100081.53;8332767;28;20352;-75
2022/10/11 20:51:13;;;;;;;;;;;;;;;9.10;82.59;100080.53;8363615;28;20297;-76
2022/10/11 20:55:14;;;;;;;;;;;;;;;9.00;83.05;100082.16;8366643;28;20006;-76
2022/10/11 20:59:15;;;;;;;;;;;;;;;8.90;82.83;100080.28;8353106;28;19955;-76